createdAt,value
2019-05-02T00:01:16.995Z,7.70
2019-05-02T00:03:44.295Z,7.80
2019-05-02T00:06:11.631Z,7.70
2019-05-02T00:08:39.350Z,7.70
2019-05-02T00:11:09.007Z,7.60
2019-05-02T00:13:36.244Z,7.70
2019-05-02T00:16:03.649Z,7.60
2019-05-02T00:18:32.089Z,7.60
2019-05-02T00:21:01.427Z,7.60
2019-05-02T00:23:30.004Z,7.60
2019-05-02T00:25:57.352Z,7.60
2019-05-02T00:28:24.669Z,7.60
2019-05-02T00:30:51.916Z,7.50
2019-05-02T00:33:19.260Z,7.50
2019-05-02T00:35:47.629Z,7.50
2019-05-02T00:38:15.207Z,7.50
2019-05-02T00:40:42.553Z,7.50
2019-05-02T00:43:09.904Z,7.50
2019-05-02T00:45:37.361Z,7.50
2019-05-02T00:48:12.799Z,7.50
2019-05-02T00:50:40.703Z,7.50
2019-05-02T00:53:12.116Z,7.50
2019-05-02T00:55:38.619Z,7.50
2019-05-02T00:58:05.910Z,7.50
2019-05-02T01:00:48.590Z,7.50
2019-05-02T01:03:16.236Z,7.50
2019-05-02T01:05:43.510Z,7.60
2019-05-02T01:08:10.870Z,7.60
2019-05-02T01:10:38.185Z,7.60
2019-05-02T01:13:05.540Z,7.60
2019-05-02T01:15:32.872Z,7.60
2019-05-02T01:18:01.144Z,7.60
2019-05-02T01:20:29.443Z,7.60
2019-05-02T01:22:56.708Z,7.60
2019-05-02T01:25:24.155Z,7.60
2019-05-02T01:28:12.840Z,7.70
2019-05-02T01:31:01.558Z,7.70
2019-05-02T01:33:57.496Z,7.70
2019-05-02T01:36:36.773Z,7.70
2019-05-02T01:39:07.584Z,7.70
2019-05-02T01:41:35.971Z,7.70
2019-05-02T01:44:03.272Z,7.80
2019-05-02T01:46:30.517Z,7.80
2019-05-02T01:48:57.940Z,7.80
2019-05-02T01:51:25.202Z,7.80
2019-05-02T01:53:52.423Z,7.80
2019-05-02T01:56:19.763Z,7.80
2019-05-02T01:58:47.032Z,7.80
2019-05-02T02:01:16.203Z,7.80
2019-05-02T02:03:45.564Z,7.80
2019-05-02T02:06:13.033Z,7.80
2019-05-02T02:08:40.380Z,7.80
2019-05-02T02:11:07.716Z,7.80
2019-05-02T02:13:36.629Z,7.90
2019-05-02T02:16:05.880Z,7.90
2019-05-02T02:18:37.037Z,7.90
2019-05-02T02:21:14.139Z,7.90
2019-05-02T02:23:56.215Z,7.90
2019-05-02T02:26:24.119Z,7.90
2019-05-02T02:28:51.345Z,7.90
2019-05-02T02:31:19.596Z,8.00
2019-05-02T02:33:47.902Z,8.00
2019-05-02T02:36:16.079Z,7.90
2019-05-02T02:38:43.323Z,7.90
2019-05-02T02:41:13.097Z,8.00
2019-05-02T02:43:40.181Z,8.00
2019-05-02T02:46:30.882Z,8.00
2019-05-02T02:48:57.067Z,8.00
2019-05-02T02:51:26.274Z,8.00
2019-05-02T02:54:02.625Z,8.00
2019-05-02T02:56:22.573Z,8.00
2019-05-02T02:58:49.890Z,8.00
2019-05-02T03:01:27.297Z,8.00
2019-05-02T03:03:46.575Z,8.00
2019-05-02T03:06:14.097Z,8.00
2019-05-02T03:08:46.282Z,8.10
2019-05-02T03:11:22.777Z,8.00
2019-05-02T03:14:13.284Z,8.00
2019-05-02T03:16:47.483Z,8.00
2019-05-02T03:19:14.785Z,8.00
2019-05-02T03:21:54.647Z,8.00
2019-05-02T03:24:23.264Z,8.00
2019-05-02T03:26:55.314Z,8.00
2019-05-02T03:29:19.842Z,8.00
2019-05-02T03:31:47.193Z,8.00
2019-05-02T03:34:15.524Z,8.00
2019-05-02T03:36:42.852Z,8.00
2019-05-02T03:39:14.575Z,8.00
2019-05-02T03:41:39.391Z,8.00
2019-05-02T03:44:11.085Z,8.00
2019-05-02T03:46:35.746Z,8.00
2019-05-02T03:49:07.099Z,8.00
2019-05-02T03:51:32.336Z,8.00
2019-05-02T03:54:07.424Z,8.00
2019-05-02T03:56:28.840Z,8.00
2019-05-02T03:58:58.299Z,8.00
2019-05-02T04:01:25.486Z,8.00
2019-05-02T04:03:52.931Z,8.00
2019-05-02T04:06:23.380Z,8.00
2019-05-02T04:08:58.899Z,8.10
2019-05-02T04:11:22.908Z,8.00
2019-05-02T04:13:51.991Z,8.00
2019-05-02T04:16:19.616Z,8.00
2019-05-02T04:18:54.603Z,8.00
2019-05-02T04:21:24.120Z,8.00
2019-05-02T04:23:47.286Z,8.00
2019-05-02T04:26:15.705Z,8.00
2019-05-02T04:28:45.630Z,8.10
2019-05-02T04:31:13.675Z,8.00
2019-05-02T04:33:40.999Z,8.10
2019-05-02T04:36:15.479Z,8.10
2019-05-02T04:38:44.345Z,8.10
2019-05-02T04:41:09.321Z,8.10
2019-05-02T04:43:40.527Z,8.10
2019-05-02T04:46:09.303Z,8.10
2019-05-02T04:48:34.642Z,8.10
2019-05-02T04:51:10.092Z,8.20
2019-05-02T04:53:41.027Z,8.20
2019-05-02T04:56:06.827Z,8.20
2019-05-02T04:58:34.779Z,8.30
2019-05-02T05:01:01.869Z,8.30
2019-05-02T05:03:29.079Z,8.50
2019-05-02T05:06:01.562Z,8.50
2019-05-02T05:08:29.954Z,8.40
2019-05-02T05:10:54.580Z,8.40
2019-05-02T05:13:23.297Z,8.50
2019-05-02T05:15:51.975Z,8.60
2019-05-02T05:18:19.583Z,8.60
2019-05-02T05:20:52.845Z,8.60
2019-05-02T05:23:25.528Z,8.50
2019-05-02T05:26:03.240Z,8.50
2019-05-02T05:28:27.238Z,8.50
2019-05-02T05:30:54.637Z,8.60
2019-05-02T05:33:22.002Z,8.50
2019-05-02T05:35:52.598Z,8.40
2019-05-02T05:38:22.929Z,8.40
2019-05-02T05:40:47.902Z,8.40
2019-05-02T05:43:20.263Z,8.50
2019-05-02T05:45:53.445Z,8.50
2019-05-02T05:48:15.048Z,8.40
2019-05-02T05:50:42.353Z,8.40
2019-05-02T05:53:12.391Z,8.50
2019-05-02T05:55:38.797Z,8.50
2019-05-02T05:58:13.961Z,8.60
2019-05-02T06:00:35.475Z,8.60
2019-05-02T06:03:12.984Z,8.70
2019-05-02T06:05:33.249Z,8.70
2019-05-02T06:08:01.203Z,8.70
2019-05-02T06:10:28.640Z,8.70
2019-05-02T06:12:55.950Z,8.90
2019-05-02T06:15:23.315Z,9.00
2019-05-02T06:17:50.634Z,9.00
2019-05-02T06:20:19.260Z,9.00
2019-05-02T06:22:46.588Z,8.90
2019-05-02T06:25:15.832Z,8.90
2019-05-02T06:27:43.136Z,8.80
2019-05-02T06:30:10.973Z,8.60
2019-05-02T06:32:38.294Z,8.50
2019-05-02T06:35:05.872Z,8.50
2019-05-02T06:37:33.174Z,8.40
2019-05-02T06:40:03.183Z,8.30
2019-05-02T06:42:32.836Z,8.40
2019-05-02T06:44:59.720Z,8.30
2019-05-02T06:47:28.128Z,8.20
2019-05-02T06:50:15.084Z,8.30
2019-05-02T06:52:42.351Z,8.30
2019-05-02T06:55:09.791Z,8.40
2019-05-02T06:57:37.143Z,8.30
2019-05-02T07:00:06.681Z,8.40
2019-05-02T07:02:35.368Z,8.40
2019-05-02T07:05:03.341Z,8.50
2019-05-02T07:07:34.195Z,8.50
2019-05-02T07:09:59.728Z,8.50
2019-05-02T07:12:26.962Z,8.50
2019-05-02T07:14:56.107Z,8.50
2019-05-02T07:17:36.339Z,8.40
2019-05-02T07:20:03.943Z,8.30
2019-05-02T07:22:33.088Z,8.30
2019-05-02T07:25:01.783Z,8.40
2019-05-02T07:27:33.625Z,8.40
2019-05-02T07:29:59.679Z,8.30
2019-05-02T07:32:27.005Z,8.20
2019-05-02T07:34:54.354Z,8.10
2019-05-02T07:37:21.556Z,8.10
2019-05-02T07:39:48.836Z,8.20
2019-05-02T07:42:16.160Z,8.20
2019-05-02T07:44:43.659Z,8.20
2019-05-02T07:47:10.968Z,8.20
2019-05-02T07:49:38.306Z,8.20
2019-05-02T07:52:05.558Z,8.20
2019-05-02T07:54:32.796Z,8.30
2019-05-02T07:57:02.310Z,8.40
2019-05-02T07:59:29.159Z,8.40
2019-05-02T08:01:56.409Z,8.60
2019-05-02T08:04:23.744Z,8.70
2019-05-02T08:06:51.060Z,8.90
2019-05-02T08:09:18.524Z,8.90
2019-05-02T08:11:45.932Z,8.90
2019-05-02T08:14:13.176Z,8.90
2019-05-02T08:16:40.537Z,9.10
2019-05-02T08:19:07.759Z,9.00
2019-05-02T08:21:35.114Z,9.00
2019-05-02T08:24:03.625Z,9.20
2019-05-02T08:26:53.472Z,9.20
2019-05-02T08:29:23.521Z,9.10
2019-05-02T08:31:48.859Z,9.10
2019-05-02T08:34:19.014Z,9.30
2019-05-02T08:36:46.308Z,9.40
2019-05-02T08:39:14.609Z,9.50
2019-05-02T08:41:42.128Z,9.60
2019-05-02T08:44:09.467Z,9.70
2019-05-02T08:46:36.729Z,9.60
2019-05-02T08:49:04.151Z,9.70
2019-05-02T08:51:31.526Z,9.70
2019-05-02T08:53:58.855Z,9.70
2019-05-02T08:56:26.061Z,9.60
2019-05-02T08:58:53.308Z,9.10
2019-05-02T09:01:20.612Z,9.10
2019-05-02T09:03:55.066Z,9.20
2019-05-02T09:06:21.716Z,9.20
2019-05-02T09:08:51.069Z,9.00
2019-05-02T09:11:15.879Z,9.10
2019-05-02T09:13:45.946Z,8.90
2019-05-02T09:16:12.400Z,8.80
2019-05-02T09:18:46.445Z,8.80
2019-05-02T09:21:08.861Z,9.00
2019-05-02T09:23:37.243Z,9.00
2019-05-02T09:26:04.636Z,9.00
2019-05-02T09:28:32.175Z,9.00
2019-05-02T09:31:04.992Z,9.00
2019-05-02T09:33:28.668Z,8.90
2019-05-02T09:35:55.912Z,9.00
2019-05-02T09:38:23.317Z,9.10
2019-05-02T09:40:54.585Z,9.20
2019-05-02T09:43:19.725Z,9.30
2019-05-02T09:45:47.041Z,9.40
2019-05-02T09:48:17.128Z,9.30
2019-05-02T09:50:43.540Z,9.30
2019-05-02T09:53:13.220Z,9.20
2019-05-02T09:55:42.366Z,9.20
2019-05-02T09:58:10.444Z,9.20
2019-05-02T10:01:07.012Z,9.00
2019-05-02T10:03:34.458Z,8.90
2019-05-02T10:06:03.077Z,9.10
2019-05-02T10:08:32.126Z,9.10
2019-05-02T10:10:59.646Z,8.90
2019-05-02T10:13:26.860Z,8.90
2019-05-02T10:15:54.212Z,8.90
2019-05-02T10:18:28.647Z,9.10
2019-05-02T10:20:52.441Z,9.10
2019-05-02T10:23:20.752Z,9.10
2019-05-02T10:25:48.811Z,9.00
2019-05-02T10:28:16.066Z,8.90
2019-05-02T10:30:47.385Z,8.60
2019-05-02T10:33:12.810Z,8.00
2019-05-02T10:35:43.444Z,7.00
2019-05-02T10:38:17.644Z,6.50
2019-05-02T10:40:42.348Z,6.10
2019-05-02T10:43:11.535Z,5.90
2019-05-02T10:45:42.085Z,5.60
2019-05-02T10:48:22.821Z,5.50
2019-05-02T10:50:44.599Z,5.30
2019-05-02T10:53:15.665Z,5.20
2019-05-02T10:55:42.550Z,5.20
2019-05-02T10:58:09.921Z,5.30
2019-05-02T11:00:38.090Z,5.50
2019-05-02T11:03:25.341Z,5.80
2019-05-02T11:05:58.048Z,6.30
2019-05-02T11:08:26.068Z,6.40
2019-05-02T11:10:53.492Z,6.30
2019-05-02T11:13:42.579Z,6.20
2019-05-02T11:16:32.283Z,6.00
2019-05-02T11:19:02.719Z,6.10
2019-05-02T11:21:32.051Z,6.30
2019-05-02T11:23:59.294Z,6.40
2019-05-02T11:26:26.725Z,6.60
2019-05-02T11:28:54.135Z,6.70
2019-05-02T11:31:21.961Z,6.70
2019-05-02T11:33:49.831Z,6.60
2019-05-02T11:36:17.113Z,6.50
2019-05-02T11:38:46.572Z,6.50
2019-05-02T11:41:13.699Z,6.60
2019-05-02T11:43:42.450Z,6.60
2019-05-02T11:46:12.043Z,6.50
2019-05-02T11:48:53.253Z,6.60
2019-05-02T11:51:12.722Z,6.60
2019-05-02T11:53:37.787Z,6.70
2019-05-02T11:56:07.468Z,7.10
2019-05-02T11:58:34.559Z,7.40
2019-05-02T12:01:05.084Z,7.40
2019-05-02T12:03:39.099Z,7.30
2019-05-02T12:06:10.955Z,7.50
2019-05-02T12:08:39.452Z,7.70
2019-05-02T12:11:08.466Z,7.80
2019-05-02T12:13:34.009Z,7.90
2019-05-02T12:16:02.718Z,8.00
2019-05-02T12:18:30.216Z,8.10
2019-05-02T12:20:57.468Z,8.20
2019-05-02T12:23:24.789Z,8.40
2019-05-02T12:25:52.559Z,8.60
2019-05-02T12:28:19.931Z,8.70
2019-05-02T12:30:47.150Z,9.20
2019-05-02T12:33:14.964Z,9.10
2019-05-02T12:35:43.273Z,8.80
2019-05-02T12:38:12.198Z,8.30
2019-05-02T12:40:39.845Z,7.70
2019-05-02T12:43:07.207Z,7.20
2019-05-02T12:45:34.581Z,7.00
2019-05-02T12:48:02.479Z,6.90
2019-05-02T12:50:29.892Z,6.90
2019-05-02T12:52:57.249Z,6.90
2019-05-02T12:55:24.578Z,7.00
2019-05-02T12:57:52.428Z,6.90
2019-05-02T13:00:22.222Z,6.90
2019-05-02T13:03:03.895Z,7.10
2019-05-02T13:05:31.778Z,7.40
2019-05-02T13:07:59.180Z,7.70
2019-05-02T13:10:34.984Z,8.10
2019-05-02T13:13:05.120Z,8.40
2019-05-02T13:15:32.931Z,8.70
2019-05-02T13:18:00.376Z,8.70
2019-05-02T13:20:29.382Z,8.40
2019-05-02T13:23:16.629Z,8.30
2019-05-02T13:25:44.085Z,8.20
2019-05-02T13:28:12.311Z,8.20
2019-05-02T13:30:47.824Z,8.50
2019-05-02T13:33:27.370Z,8.60
2019-05-02T13:35:55.495Z,8.80
2019-05-02T13:38:22.930Z,9.20
2019-05-02T13:40:51.750Z,9.50
2019-05-02T13:43:21.853Z,9.50
2019-05-02T13:46:26.699Z,9.80
2019-05-02T13:48:53.444Z,9.80
2019-05-02T13:51:22.335Z,9.60
2019-05-02T13:54:02.020Z,9.40
2019-05-02T13:56:48.340Z,9.40
2019-05-02T13:59:16.485Z,9.50
2019-05-02T14:01:45.782Z,9.50
2019-05-02T14:04:15.059Z,9.40
2019-05-02T14:06:42.241Z,9.40
2019-05-02T14:09:24.144Z,9.30
2019-05-02T14:12:22.797Z,9.40
2019-05-02T14:14:51.800Z,9.60
2019-05-02T14:17:19.162Z,9.70
2019-05-02T14:19:46.600Z,9.80
2019-05-02T14:22:13.807Z,9.90
2019-05-02T14:24:42.162Z,9.80
2019-05-02T14:27:12.956Z,9.70
2019-05-02T14:29:38.824Z,9.50
2019-05-02T14:32:20.013Z,9.40
2019-05-02T14:34:52.484Z,9.30
2019-05-02T14:37:19.888Z,9.30
2019-05-02T14:39:49.424Z,9.20
2019-05-02T14:42:24.381Z,9.20
2019-05-02T14:45:04.275Z,9.20
2019-05-02T14:47:19.427Z,9.00
2019-05-02T14:49:44.283Z,8.90
2019-05-02T14:52:12.657Z,9.00
2019-05-02T14:54:43.749Z,8.90
2019-05-02T14:57:17.014Z,8.90
2019-05-02T14:59:42.861Z,9.00
2019-05-02T15:02:32.794Z,9.10
2019-05-02T15:05:02.075Z,9.20
2019-05-02T15:07:29.569Z,9.40
2019-05-02T15:09:57.216Z,9.70
2019-05-02T15:12:26.041Z,9.70
2019-05-02T15:14:57.382Z,9.50
2019-05-02T15:17:22.797Z,9.20
2019-05-02T15:19:50.055Z,8.80
2019-05-02T15:22:17.588Z,8.70
2019-05-02T15:24:44.834Z,8.70
2019-05-02T15:27:17.543Z,8.90
2019-05-02T15:29:42.023Z,9.00
2019-05-02T15:32:27.880Z,9.00
2019-05-02T15:35:17.755Z,8.90
2019-05-02T15:37:43.963Z,8.90
2019-05-02T15:42:52.084Z,8.10
2019-05-02T15:45:20.467Z,7.80
2019-05-02T15:47:48.491Z,7.60
2019-05-02T15:50:21.916Z,7.50
2019-05-02T15:52:49.874Z,7.30
2019-05-02T15:55:17.180Z,7.20
2019-05-02T15:57:46.406Z,7.20
2019-05-02T16:00:22.973Z,7.30
2019-05-02T16:02:47.394Z,7.30
2019-05-02T16:05:14.662Z,7.30
2019-05-02T16:07:43.315Z,7.40
2019-05-02T16:10:13.077Z,7.50
2019-05-02T16:12:41.889Z,7.50
2019-05-02T16:15:18.110Z,7.40
2019-05-02T16:17:38.694Z,7.20
2019-05-02T16:20:13.369Z,7.10
2019-05-02T16:22:46.348Z,7.10
2019-05-02T16:25:12.117Z,7.10
2019-05-02T16:27:46.180Z,7.10
2019-05-02T16:30:16.219Z,7.00
2019-05-02T16:33:02.690Z,7.20
2019-05-02T16:35:32.050Z,7.20
2019-05-02T16:37:59.397Z,7.30
2019-05-02T16:40:29.680Z,7.30
2019-05-02T16:42:56.485Z,7.10
2019-05-02T16:45:24.013Z,7.10
2019-05-02T16:47:58.609Z,7.00
2019-05-02T16:50:22.735Z,6.90
2019-05-02T16:52:50.242Z,7.00
2019-05-02T16:55:20.726Z,7.00
2019-05-02T16:57:46.670Z,6.90
2019-05-02T17:00:18.513Z,6.70
2019-05-02T17:02:46.450Z,6.60
2019-05-02T17:05:14.171Z,6.60
2019-05-02T17:07:59.807Z,6.60
2019-05-02T17:10:32.187Z,6.60
2019-05-02T17:13:00.943Z,6.40
2019-05-02T17:15:35.169Z,6.30
2019-05-02T17:18:05.098Z,6.20
2019-05-02T17:20:31.960Z,6.00
2019-05-02T17:23:03.325Z,5.90
2019-05-02T17:25:28.527Z,5.70
2019-05-02T17:28:03.918Z,5.60
2019-05-02T17:30:25.183Z,5.50
2019-05-02T17:32:52.437Z,5.40
2019-05-02T17:35:22.022Z,5.30
2019-05-02T17:37:50.052Z,5.20
2019-05-02T17:40:22.496Z,5.20
2019-05-02T17:42:48.352Z,5.20
2019-05-02T17:45:17.068Z,5.20
2019-05-02T17:47:44.402Z,5.30
2019-05-02T17:50:35.975Z,5.30
2019-05-02T17:53:04.036Z,5.30
2019-05-02T17:55:32.844Z,5.20
2019-05-02T17:58:04.491Z,5.10
2019-05-02T18:00:33.383Z,5.10
2019-05-02T18:03:02.499Z,5.00
2019-05-02T18:05:32.063Z,4.80
2019-05-02T18:07:59.166Z,4.60
2019-05-02T18:10:26.447Z,4.60
2019-05-02T18:12:58.273Z,4.70
2019-05-02T18:15:22.917Z,4.70
2019-05-02T18:17:52.192Z,4.60
2019-05-02T18:20:21.951Z,4.60
2019-05-02T18:22:51.783Z,4.60
2019-05-02T18:25:21.665Z,4.60
2019-05-02T18:27:48.012Z,4.50
2019-05-02T18:30:24.954Z,4.40
2019-05-02T18:32:48.315Z,4.40
2019-05-02T18:35:15.784Z,4.30
2019-05-02T18:37:46.757Z,4.30
2019-05-02T18:40:13.456Z,4.20
2019-05-02T18:42:42.395Z,4.00
2019-05-02T18:45:14.885Z,3.90
2019-05-02T18:47:42.335Z,4.00
2019-05-02T18:50:28.237Z,4.00
2019-05-02T18:52:55.568Z,4.10
2019-05-02T18:55:25.893Z,4.20
2019-05-02T18:57:52.339Z,4.20
2019-05-02T19:00:20.021Z,4.20
2019-05-02T19:02:47.255Z,4.20
2019-05-02T19:05:19.288Z,4.20
2019-05-02T19:07:47.328Z,4.20
2019-05-02T19:10:13.848Z,4.10
2019-05-02T19:12:42.036Z,4.10
2019-05-02T19:15:10.429Z,4.00
2019-05-02T19:17:39.132Z,4.00
2019-05-02T19:20:24.815Z,3.90
2019-05-02T19:22:56.655Z,3.90
2019-05-02T19:25:22.769Z,3.90
2019-05-02T19:27:57.894Z,3.90
2019-05-02T19:30:27.641Z,3.90
2019-05-02T19:32:57.797Z,3.90
2019-05-02T19:35:24.102Z,3.80
2019-05-02T19:37:52.479Z,3.80
2019-05-02T19:40:26.967Z,3.80
2019-05-02T19:42:52.715Z,3.80
2019-05-02T19:45:21.857Z,3.80
2019-05-02T19:47:53.682Z,3.80
2019-05-02T19:50:39.213Z,3.80
2019-05-02T19:53:04.498Z,3.70
2019-05-02T19:55:32.174Z,3.70
2019-05-02T19:58:04.823Z,3.70
2019-05-02T20:00:31.822Z,3.70
2019-05-02T20:02:59.379Z,3.70
2019-05-02T20:05:26.820Z,3.70
2019-05-02T20:07:54.260Z,3.70
2019-05-02T20:10:22.731Z,3.70
2019-05-02T20:12:50.926Z,3.70
2019-05-02T20:15:25.427Z,3.60
2019-05-02T20:17:55.302Z,3.60
2019-05-02T20:21:03.847Z,3.60
2019-05-02T20:23:35.385Z,3.50
2019-05-02T20:26:00.519Z,3.40
2019-05-02T20:28:27.984Z,3.30
2019-05-02T20:30:55.396Z,3.20
2019-05-02T20:33:22.747Z,3.20
2019-05-02T20:35:49.960Z,3.10
2019-05-02T20:38:17.314Z,3.10
2019-05-02T20:40:44.636Z,3.00
2019-05-02T20:43:12.247Z,3.00
2019-05-02T20:45:39.629Z,2.90
2019-05-02T20:48:06.963Z,2.90
2019-05-02T20:50:34.324Z,2.90
2019-05-02T20:53:01.985Z,2.80
2019-05-02T20:55:29.398Z,2.80
2019-05-02T20:57:56.719Z,2.70
2019-05-02T21:00:27.182Z,2.70
2019-05-02T21:02:54.489Z,2.70
2019-05-02T21:05:25.636Z,2.60
2019-05-02T21:08:12.596Z,2.60
2019-05-02T21:10:41.808Z,2.60
2019-05-02T21:13:09.179Z,2.50
2019-05-02T21:15:36.476Z,2.50
2019-05-02T21:18:03.868Z,2.50
2019-05-02T21:20:32.508Z,2.40
2019-05-02T21:23:01.882Z,2.40
2019-05-02T21:25:29.040Z,2.40
2019-05-02T21:27:56.363Z,2.40
2019-05-02T21:30:24.700Z,2.30
2019-05-02T21:32:52.135Z,2.30
2019-05-02T21:35:19.487Z,2.30
2019-05-02T21:37:46.849Z,2.30
2019-05-02T21:40:14.662Z,2.20
2019-05-02T21:42:42.558Z,2.20
2019-05-02T21:45:10.152Z,2.20
2019-05-02T21:47:37.495Z,2.10
2019-05-02T21:50:18.512Z,2.10
2019-05-02T21:53:05.487Z,2.00
2019-05-02T21:55:45.672Z,2.00
2019-05-02T21:58:12.975Z,2.00
2019-05-02T22:01:02.147Z,1.90
2019-05-02T22:03:29.786Z,1.90
2019-05-02T22:05:57.091Z,1.80
2019-05-02T22:08:24.364Z,1.80
2019-05-02T22:10:52.101Z,1.80
2019-05-02T22:13:19.529Z,1.80
2019-05-02T22:15:46.863Z,1.80
2019-05-02T22:18:14.183Z,1.80
2019-05-02T22:20:42.766Z,1.70
2019-05-02T22:23:11.816Z,1.70
2019-05-02T22:25:39.202Z,1.70
2019-05-02T22:28:06.408Z,1.60
2019-05-02T22:30:33.773Z,1.50
2019-05-02T22:33:02.781Z,1.30
2019-05-02T22:35:32.208Z,0.80
2019-05-02T22:38:06.054Z,0.30
2019-05-02T22:40:33.492Z,0.00
2019-05-02T22:43:01.946Z,-0.30
2019-05-02T22:45:30.004Z,-0.30
2019-05-02T22:47:57.257Z,-0.60
2019-05-02T22:50:24.567Z,-0.80
2019-05-02T22:52:52.202Z,-0.90
2019-05-02T22:55:19.623Z,-1.00
2019-05-02T22:57:46.992Z,-1.10
2019-05-02T23:00:14.387Z,-1.30
2019-05-02T23:02:41.937Z,-1.30
2019-05-02T23:05:09.394Z,-1.40
2019-05-02T23:07:36.776Z,-1.50
2019-05-02T23:10:04.701Z,-1.60
2019-05-02T23:12:32.014Z,-1.60
2019-05-02T23:14:59.332Z,-1.60
2019-05-02T23:17:26.636Z,-1.60
2019-05-02T23:19:53.879Z,-1.70
2019-05-02T23:22:21.777Z,-1.80
2019-05-02T23:25:07.312Z,-1.80
2019-05-02T23:27:42.382Z,-1.80
2019-05-02T23:30:14.148Z,-1.90
2019-05-02T23:32:42.350Z,-1.90
2019-05-02T23:35:10.194Z,-1.80
2019-05-02T23:37:37.531Z,-1.90
2019-05-02T23:40:05.295Z,-1.90
2019-05-02T23:42:33.074Z,-1.90
2019-05-02T23:45:02.647Z,-1.90
2019-05-02T23:47:29.802Z,-1.90
2019-05-02T23:49:57.131Z,-1.90
2019-05-02T23:52:24.587Z,-1.90
2019-05-02T23:54:52.546Z,-1.90
2019-05-02T23:57:20.096Z,-1.80
2019-05-02T23:59:47.431Z,-1.90
